createdAt,value
2024-02-23T00:00:06.911Z,97632.19
2024-02-23T00:02:33.800Z,97640.97
2024-02-23T00:05:02.395Z,97642.81
2024-02-23T00:07:29.289Z,97638.31
2024-02-23T00:09:56.265Z,97635.66
2024-02-23T00:12:23.228Z,97629.53
2024-02-23T00:14:52.347Z,97618.91
2024-02-23T00:17:19.284Z,97613.47
2024-02-23T00:19:47.277Z,97626.72
2024-02-23T00:22:14.847Z,97630.50
2024-02-23T00:24:42.428Z,97631.34
2024-02-23T00:27:09.501Z,97626.22
2024-02-23T00:29:36.830Z,97631.50
2024-02-23T00:32:05.829Z,97627.50
2024-02-23T00:34:33.602Z,97638.94
2024-02-23T00:37:00.853Z,97617.88
2024-02-23T00:39:27.701Z,97613.75
2024-02-23T00:41:54.874Z,97621.06
2024-02-23T00:44:21.839Z,97614.56
2024-02-23T00:46:48.971Z,97613.91
2024-02-23T00:49:16.018Z,97616.75
2024-02-23T00:51:42.888Z,97617.22
2024-02-23T00:54:09.804Z,97629.69
2024-02-23T00:56:45.709Z,97628.34
2024-02-23T00:59:18.084Z,97631.34
2024-02-23T01:01:44.996Z,97640.13
2024-02-23T01:04:11.903Z,97625.69
2024-02-23T01:06:38.952Z,97639.47
2024-02-23T01:09:06.076Z,97642.78
2024-02-23T01:11:33.111Z,97642.78
2024-02-23T01:14:00.201Z,97636.31
2024-02-23T01:16:27.383Z,97652.06
2024-02-23T01:18:54.283Z,97650.25
2024-02-23T01:21:21.246Z,97655.56
2024-02-23T01:23:48.274Z,97649.09
2024-02-23T01:26:15.819Z,97668.31
2024-02-23T01:28:42.719Z,97675.94
2024-02-23T01:31:12.536Z,97671.94
2024-02-23T01:33:40.625Z,97691.19
2024-02-23T01:36:09.075Z,97692.38
2024-02-23T01:38:36.217Z,97687.38
2024-02-23T01:41:03.286Z,97704.97
2024-02-23T01:43:30.107Z,97694.69
2024-02-23T01:45:57.004Z,97693.34
2024-02-23T01:48:24.051Z,97709.44
2024-02-23T01:50:51.390Z,97727.84
2024-02-23T01:53:20.896Z,97747.91
2024-02-23T01:55:48.775Z,97717.03
2024-02-23T01:58:16.234Z,97737.94
2024-02-23T02:00:43.171Z,97745.25
2024-02-23T02:03:12.925Z,97760.47
2024-02-23T02:05:40.345Z,97770.44
2024-02-23T02:08:07.721Z,97791.19
2024-02-23T02:10:34.887Z,97771.75
2024-02-23T02:13:06.083Z,97807.75
2024-02-23T02:15:33.023Z,97807.63
2024-02-23T02:18:00.035Z,97822.69
2024-02-23T02:20:27.672Z,97820.38
2024-02-23T02:22:54.683Z,97827.84
2024-02-23T02:25:22.022Z,97838.13
2024-02-23T02:27:49.015Z,97824.69
2024-02-23T02:30:15.987Z,97841.78
2024-02-23T02:32:43.101Z,97855.44
2024-02-23T02:35:13.924Z,97892.28
2024-02-23T02:37:41.188Z,97869.03
2024-02-23T02:40:08.732Z,97871.69
2024-02-23T02:42:36.028Z,97886.47
2024-02-23T02:45:04.740Z,97894.28
2024-02-23T02:47:31.893Z,97919.31
2024-02-23T02:49:59.131Z,97918.50
2024-02-23T02:52:26.222Z,97928.28
2024-02-23T02:54:53.240Z,97915.00
2024-02-23T02:57:20.057Z,97924.41
2024-02-23T02:59:47.564Z,97928.91
2024-02-23T03:02:14.732Z,97938.00
2024-02-23T03:04:48.526Z,97960.69
2024-02-23T03:07:16.710Z,97973.13
2024-02-23T03:09:43.983Z,97967.91
2024-02-23T03:12:12.126Z,97966.28
2024-02-23T03:14:42.007Z,97983.84
2024-02-23T03:17:11.207Z,97985.69
2024-02-23T03:19:38.945Z,98021.16
2024-02-23T03:22:06.416Z,98011.97
2024-02-23T03:24:33.364Z,98056.91
2024-02-23T03:27:00.542Z,98028.88
2024-02-23T03:29:31.211Z,98031.41
2024-02-23T03:31:58.477Z,98023.53
2024-02-23T03:34:25.988Z,98022.53
2024-02-23T03:36:53.291Z,98061.03
2024-02-23T03:39:20.172Z,98034.91
2024-02-23T03:41:47.330Z,98035.53
2024-02-23T03:44:14.224Z,98053.41
2024-02-23T03:46:41.143Z,98043.94
2024-02-23T03:49:07.975Z,98051.22
2024-02-23T03:51:37.039Z,98040.91
2024-02-23T03:54:04.614Z,98059.31
2024-02-23T03:56:31.672Z,98076.94
2024-02-23T03:58:58.685Z,98091.25
2024-02-23T04:01:25.719Z,98083.31
2024-02-23T04:03:52.619Z,98073.09
2024-02-23T04:06:19.579Z,98102.09
2024-02-23T04:08:48.957Z,98122.47
2024-02-23T04:11:17.244Z,98116.25
2024-02-23T04:13:44.497Z,98095.03
2024-02-23T04:16:11.401Z,98124.06
2024-02-23T04:18:38.266Z,98151.53
2024-02-23T04:21:05.456Z,98112.31
2024-02-23T04:23:32.413Z,98116.03
2024-02-23T04:26:00.725Z,98125.72
2024-02-23T04:28:32.141Z,98135.22
2024-02-23T04:30:59.058Z,98149.34
2024-02-23T04:33:25.936Z,98135.09
2024-02-23T04:35:53.250Z,98156.81
2024-02-23T04:38:20.174Z,98151.69
2024-02-23T04:40:47.092Z,98164.72
2024-02-23T04:43:15.093Z,98185.56
2024-02-23T04:45:42.175Z,98184.16
2024-02-23T04:48:09.265Z,98198.31
2024-02-23T04:50:36.383Z,98182.03
2024-02-23T04:53:03.794Z,98189.97
2024-02-23T04:55:30.732Z,98212.38
2024-02-23T04:57:58.091Z,98222.41
2024-02-23T05:00:25.299Z,98235.81
2024-02-23T05:02:52.260Z,98230.25
2024-02-23T05:05:19.262Z,98244.38
2024-02-23T05:07:46.186Z,98248.47
2024-02-23T05:10:13.198Z,98269.53
2024-02-23T05:12:40.210Z,98295.06
2024-02-23T05:15:08.660Z,98283.34
2024-02-23T05:17:36.031Z,98298.69
2024-02-23T05:20:09.526Z,98307.88
2024-02-23T05:22:36.461Z,98300.34
2024-02-23T05:25:03.308Z,98310.53
2024-02-23T05:27:30.228Z,98331.56
2024-02-23T05:29:57.190Z,98323.06
2024-02-23T05:32:24.139Z,98314.84
2024-02-23T05:34:54.193Z,98326.69
2024-02-23T05:37:21.100Z,98352.03
2024-02-23T05:39:48.213Z,98357.47
2024-02-23T05:42:15.300Z,98344.09
2024-02-23T05:44:45.785Z,98352.38
2024-02-23T05:47:12.789Z,98377.66
2024-02-23T05:49:39.755Z,98398.19
2024-02-23T05:52:06.811Z,98374.94
2024-02-23T05:54:33.661Z,98380.34
2024-02-23T05:57:00.643Z,98384.22
2024-02-23T05:59:28.921Z,98402.28
2024-02-23T06:01:58.688Z,98410.00
2024-02-23T06:04:26.352Z,98406.66
2024-02-23T06:06:53.342Z,98414.69
2024-02-23T06:09:20.547Z,98426.09
2024-02-23T06:11:47.754Z,98432.34
2024-02-23T06:14:15.240Z,98441.69
2024-02-23T06:16:42.236Z,98440.22
2024-02-23T06:19:09.760Z,98452.75
2024-02-23T06:21:38.004Z,98468.03
2024-02-23T06:24:06.278Z,98481.13
2024-02-23T06:26:33.427Z,98475.09
2024-02-23T06:29:00.627Z,98498.06
2024-02-23T06:31:28.047Z,98516.34
2024-02-23T06:33:55.236Z,98508.22
2024-02-23T06:36:22.128Z,98522.16
2024-02-23T06:38:49.068Z,98534.44
2024-02-23T06:41:16.260Z,98530.75
2024-02-23T06:43:43.305Z,98553.31
2024-02-23T06:46:10.950Z,98546.81
2024-02-23T06:48:38.609Z,98564.19
2024-02-23T06:51:06.501Z,98548.34
2024-02-23T06:53:33.598Z,98559.88
2024-02-23T06:56:00.742Z,98560.34
2024-02-23T06:58:30.309Z,98563.94
2024-02-23T07:00:57.412Z,98567.31
2024-02-23T07:03:24.402Z,98575.78
2024-02-23T07:05:51.852Z,98597.16
2024-02-23T07:08:19.496Z,98598.84
2024-02-23T07:10:46.768Z,98597.97
2024-02-23T07:13:15.986Z,98585.63
2024-02-23T07:15:43.013Z,98592.56
2024-02-23T07:18:10.094Z,98587.59
2024-02-23T07:20:38.740Z,98603.38
2024-02-23T07:23:06.577Z,98605.66
2024-02-23T07:25:33.482Z,98624.03
2024-02-23T07:28:00.647Z,98618.84
2024-02-23T07:30:27.694Z,98608.88
2024-02-23T07:32:54.588Z,98603.06
2024-02-23T07:35:21.659Z,98616.47
2024-02-23T07:37:48.704Z,98621.25
2024-02-23T07:40:18.285Z,98617.91
2024-02-23T07:42:47.535Z,98635.31
2024-02-23T07:45:14.603Z,98632.66
2024-02-23T07:47:41.534Z,98638.34
2024-02-23T07:50:09.956Z,98646.97
2024-02-23T07:52:36.972Z,98632.25
2024-02-23T07:55:06.726Z,98639.13
2024-02-23T07:57:34.491Z,98644.81
2024-02-23T08:00:01.671Z,98658.22
2024-02-23T08:02:43.212Z,98653.47
2024-02-23T08:05:11.466Z,98663.94
2024-02-23T08:07:38.830Z,98657.44
2024-02-23T08:10:06.516Z,98666.34
2024-02-23T08:12:33.509Z,98681.03
2024-02-23T08:15:00.826Z,98671.44
2024-02-23T08:17:28.079Z,98676.13
2024-02-23T08:19:55.138Z,98687.09
2024-02-23T08:22:22.113Z,98689.78
2024-02-23T08:24:49.219Z,98691.41
2024-02-23T08:27:16.819Z,98681.06
2024-02-23T08:29:46.734Z,98685.56
2024-02-23T08:32:14.534Z,98722.50
2024-02-23T08:34:50.174Z,98721.13
2024-02-23T08:37:30.482Z,98706.97
2024-02-23T08:40:06.207Z,98738.25
2024-02-23T08:42:52.741Z,98719.72
2024-02-23T08:45:23.841Z,98720.22
2024-02-23T08:48:11.204Z,98721.75
2024-02-23T08:50:48.755Z,98721.94
2024-02-23T08:53:18.762Z,98724.28
2024-02-23T08:56:14.090Z,98711.53
2024-02-23T08:58:51.836Z,98718.31
2024-02-23T09:01:18.692Z,98737.28
2024-02-23T09:03:45.713Z,98733.28
2024-02-23T09:06:12.819Z,98734.44
2024-02-23T09:08:40.736Z,98746.56
2024-02-23T09:11:07.897Z,98747.00
2024-02-23T09:13:34.919Z,98747.22
2024-02-23T09:16:02.286Z,98745.34
2024-02-23T09:18:29.296Z,98754.31
2024-02-23T09:20:56.351Z,98759.69
2024-02-23T09:23:23.253Z,98769.28
2024-02-23T09:25:50.200Z,98756.00
2024-02-23T09:28:17.271Z,98770.56
2024-02-23T09:30:45.270Z,98768.13
2024-02-23T09:33:12.140Z,98775.56
2024-02-23T09:35:39.298Z,98767.47
2024-02-23T09:38:06.467Z,98765.81
2024-02-23T09:40:33.545Z,98768.09
2024-02-23T09:43:00.782Z,98788.34
2024-02-23T09:45:31.036Z,98775.22
2024-02-23T09:47:58.913Z,98800.69
2024-02-23T09:50:26.304Z,98790.06
2024-02-23T09:52:57.963Z,98793.31
2024-02-23T09:55:25.012Z,98801.56
2024-02-23T09:57:56.250Z,98794.72
2024-02-23T10:00:24.628Z,98813.56
2024-02-23T10:02:52.280Z,98823.97
2024-02-23T10:05:19.618Z,98829.06
2024-02-23T10:07:48.203Z,98854.38
2024-02-23T10:10:15.272Z,98824.00
2024-02-23T10:12:42.190Z,98855.75
2024-02-23T10:15:09.147Z,98828.00
2024-02-23T10:17:36.816Z,98808.59
2024-02-23T10:20:07.579Z,98822.16
2024-02-23T10:22:34.528Z,98845.34
2024-02-23T10:25:01.541Z,98837.97
2024-02-23T10:27:29.266Z,98844.09
2024-02-23T10:29:56.457Z,98832.53
2024-02-23T10:32:24.535Z,98833.22
2024-02-23T10:34:53.520Z,98832.66
2024-02-23T10:37:20.549Z,98828.34
2024-02-23T10:39:47.541Z,98829.94
2024-02-23T10:42:15.263Z,98821.13
2024-02-23T10:44:42.566Z,98816.53
2024-02-23T10:47:10.166Z,98821.84
2024-02-23T10:49:37.966Z,98831.22
2024-02-23T10:52:05.280Z,98826.81
2024-02-23T10:54:32.940Z,98851.28
2024-02-23T10:56:59.982Z,98837.34
2024-02-23T10:59:28.166Z,98826.91
2024-02-23T11:01:55.718Z,98825.63
2024-02-23T11:04:23.497Z,98827.09
2024-02-23T11:06:54.388Z,98825.41
2024-02-23T11:09:25.847Z,98821.81
2024-02-23T11:12:00.489Z,98831.59
2024-02-23T11:14:36.515Z,98850.59
2024-02-23T11:17:04.881Z,98830.63
2024-02-23T11:19:40.928Z,98859.94
2024-02-23T11:22:16.612Z,98827.97
2024-02-23T11:24:53.039Z,98839.97
2024-02-23T11:27:23.046Z,98841.25
2024-02-23T11:30:00.588Z,98852.13
2024-02-23T11:32:39.822Z,98842.63
2024-02-23T11:35:10.168Z,98837.75
2024-02-23T11:38:00.566Z,98844.31
2024-02-23T11:40:27.920Z,98848.78
2024-02-23T11:42:58.117Z,98869.97
2024-02-23T11:45:25.207Z,98851.78
2024-02-23T11:47:54.629Z,98844.69
2024-02-23T11:50:22.346Z,98849.03
2024-02-23T11:52:49.604Z,98851.56
2024-02-23T11:55:24.330Z,98845.41
2024-02-23T11:57:58.999Z,98846.97
2024-02-23T12:00:47.185Z,98850.03
2024-02-23T12:03:14.385Z,98849.72
2024-02-23T12:05:44.360Z,98867.38
2024-02-23T12:08:11.660Z,98861.88
2024-02-23T12:10:42.139Z,98868.59
2024-02-23T12:13:09.819Z,98885.25
2024-02-23T12:15:36.855Z,98878.13
2024-02-23T12:18:04.972Z,98873.38
2024-02-23T12:20:34.943Z,98879.50
2024-02-23T12:23:07.051Z,98876.44
2024-02-23T12:25:35.028Z,98871.00
2024-02-23T12:28:03.102Z,98871.97
2024-02-23T12:30:49.769Z,98876.72
2024-02-23T12:33:44.328Z,98877.81
2024-02-23T12:36:12.963Z,98877.00
2024-02-23T12:38:49.823Z,98882.31
2024-02-23T12:41:27.009Z,98878.53
2024-02-23T12:44:07.329Z,98882.59
2024-02-23T12:46:34.411Z,98890.00
2024-02-23T12:49:01.355Z,98889.88
2024-02-23T12:51:30.740Z,98895.59
2024-02-23T12:53:57.603Z,98903.44
2024-02-23T12:56:26.700Z,98908.88
2024-02-23T12:58:55.539Z,98916.69
2024-02-23T13:01:22.675Z,98907.47
2024-02-23T13:03:49.758Z,98916.13
2024-02-23T13:06:16.817Z,98907.19
2024-02-23T13:08:44.660Z,98924.66
2024-02-23T13:11:11.760Z,98916.56
2024-02-23T13:13:40.337Z,98922.00
2024-02-23T13:16:09.860Z,98923.66
2024-02-23T13:18:36.848Z,98932.34
2024-02-23T13:21:05.040Z,98930.22
2024-02-23T13:23:32.096Z,98925.78
2024-02-23T13:25:59.484Z,98926.59
2024-02-23T13:28:26.552Z,98924.78
2024-02-23T13:30:53.484Z,98929.38
2024-02-23T13:33:22.192Z,98926.72
2024-02-23T13:35:49.574Z,98930.81
2024-02-23T13:38:16.569Z,98930.66
2024-02-23T13:40:43.584Z,98925.06
2024-02-23T13:43:11.314Z,98932.34
2024-02-23T13:45:51.152Z,98939.16
2024-02-23T13:48:19.974Z,98940.13
2024-02-23T13:50:50.373Z,98929.50
2024-02-23T13:53:20.898Z,98929.78
2024-02-23T13:55:47.881Z,98913.59
2024-02-23T13:58:14.814Z,98915.53
2024-02-23T14:00:41.780Z,98923.75
2024-02-23T14:03:09.029Z,98922.38
2024-02-23T14:05:36.077Z,98921.94
2024-02-23T14:08:04.316Z,98925.88
2024-02-23T14:10:32.930Z,98934.25
2024-02-23T14:12:59.996Z,98932.25
2024-02-23T14:15:28.245Z,98928.88
2024-02-23T14:17:55.260Z,98924.66
2024-02-23T14:20:39.467Z,98924.91
2024-02-23T14:23:08.661Z,98930.69
2024-02-23T14:25:35.593Z,98929.59
2024-02-23T14:28:02.547Z,98917.88
2024-02-23T14:30:29.571Z,98935.34
2024-02-23T14:32:56.544Z,98942.03
2024-02-23T14:35:23.495Z,98942.63
2024-02-23T14:37:50.412Z,98938.41
2024-02-23T14:40:17.553Z,98942.63
2024-02-23T14:42:44.487Z,98931.72
2024-02-23T14:45:13.508Z,98935.78
2024-02-23T14:47:45.934Z,98947.06
2024-02-23T14:50:13.825Z,98952.22
2024-02-23T14:52:41.072Z,98953.91
2024-02-23T14:55:08.242Z,98957.50
2024-02-23T14:57:35.093Z,98956.56
2024-02-23T15:00:03.739Z,98975.47
2024-02-23T15:02:30.721Z,98983.44
2024-02-23T15:04:57.727Z,98977.25
2024-02-23T15:07:24.812Z,98969.72
2024-02-23T15:09:51.853Z,98976.31
2024-02-23T15:12:19.248Z,98974.53
2024-02-23T15:14:46.290Z,98982.97
2024-02-23T15:17:13.561Z,98986.75
2024-02-23T15:19:40.613Z,98985.97
2024-02-23T15:23:49.259Z,98980.00
2024-02-23T15:27:09.824Z,98989.72
2024-02-23T15:29:33.135Z,98998.69
2024-02-23T15:32:02.592Z,98996.72
2024-02-23T15:34:34.258Z,99019.88
2024-02-23T15:37:11.698Z,99013.53
2024-02-23T15:39:39.869Z,99014.50
2024-02-23T15:42:06.964Z,99007.19
2024-02-23T15:44:34.265Z,99002.03
2024-02-23T15:47:02.923Z,98996.53
2024-02-23T15:50:09.218Z,98995.56
2024-02-23T15:52:45.033Z,99008.09
2024-02-23T15:55:13.487Z,99012.56
2024-02-23T15:57:40.758Z,99012.69
2024-02-23T16:00:11.970Z,99014.34
2024-02-23T16:02:39.110Z,99021.00
2024-02-23T16:05:08.809Z,99015.38
2024-02-23T16:07:36.312Z,99010.56
2024-02-23T16:10:03.933Z,99002.19
2024-02-23T16:12:30.904Z,99010.97
2024-02-23T16:14:58.077Z,99002.28
2024-02-23T16:17:25.016Z,99007.50
2024-02-23T16:19:52.246Z,98995.34
2024-02-23T16:22:19.529Z,98992.44
2024-02-23T16:24:48.215Z,98991.69
2024-02-23T16:27:15.908Z,98994.88
2024-02-23T16:29:51.374Z,98986.94
2024-02-23T16:32:33.753Z,98988.50
2024-02-23T16:35:11.683Z,98980.72
2024-02-23T16:37:38.605Z,98984.31
2024-02-23T16:40:06.037Z,98986.50
2024-02-23T16:42:32.946Z,98985.91
2024-02-23T16:44:59.912Z,98984.94
2024-02-23T16:47:26.890Z,99002.28
2024-02-23T16:49:54.121Z,99013.13
2024-02-23T16:52:21.419Z,99011.69
2024-02-23T16:54:48.653Z,99017.84
2024-02-23T16:57:15.553Z,99027.34
2024-02-23T16:59:42.481Z,99036.22
2024-02-23T17:02:09.396Z,99041.66
2024-02-23T17:04:37.362Z,99037.56
2024-02-23T17:07:04.505Z,99038.66
2024-02-23T17:09:31.539Z,99038.28
2024-02-23T17:11:58.497Z,99050.56
2024-02-23T17:14:26.512Z,99066.44
2024-02-23T17:16:53.382Z,99084.47
2024-02-23T17:19:20.311Z,99080.41
2024-02-23T17:21:47.481Z,99077.50
2024-02-23T17:24:14.381Z,99077.50
2024-02-23T17:26:41.422Z,99076.06
2024-02-23T17:29:10.657Z,99080.97
2024-02-23T17:31:37.675Z,99072.09
2024-02-23T17:34:04.657Z,99070.53
2024-02-23T17:36:31.672Z,99068.72
2024-02-23T17:38:58.584Z,99062.59
2024-02-23T17:41:26.638Z,99059.22
2024-02-23T17:43:53.671Z,99054.41
2024-02-23T17:46:20.495Z,99052.50
2024-02-23T17:48:47.428Z,99051.63
2024-02-23T17:51:14.974Z,99053.31
2024-02-23T17:53:41.902Z,99055.13
2024-02-23T17:56:09.446Z,99040.34
2024-02-23T17:58:37.185Z,99049.09
2024-02-23T18:01:04.960Z,99047.19
2024-02-23T18:03:32.252Z,99044.69
2024-02-23T18:05:59.222Z,99050.91
2024-02-23T18:08:26.150Z,99042.03
2024-02-23T18:10:53.014Z,99042.25
2024-02-23T18:13:19.913Z,99054.28
2024-02-23T18:15:47.080Z,99057.63
2024-02-23T18:18:15.583Z,99060.41
2024-02-23T18:20:45.131Z,99070.22
2024-02-23T18:23:12.179Z,99068.31
2024-02-23T18:25:39.081Z,99066.13
2024-02-23T18:28:06.021Z,99067.94
2024-02-23T18:30:32.927Z,99058.78
2024-02-23T18:32:59.935Z,99057.69
2024-02-23T18:35:27.101Z,99060.34
2024-02-23T18:37:53.954Z,99059.97
2024-02-23T18:40:20.738Z,99068.16
2024-02-23T18:42:47.668Z,99062.25
2024-02-23T18:45:15.699Z,99058.66
2024-02-23T18:47:42.634Z,99059.22
2024-02-23T18:50:10.262Z,99056.78
2024-02-23T18:52:37.467Z,99058.69
2024-02-23T18:55:04.659Z,99063.72
2024-02-23T18:57:32.677Z,99056.63
2024-02-23T18:59:59.856Z,99063.97
2024-02-23T19:02:27.172Z,99062.06
2024-02-23T19:04:54.131Z,99068.19
2024-02-23T19:07:21.258Z,99071.34
2024-02-23T19:09:48.210Z,99075.28
2024-02-23T19:12:15.336Z,99075.91
2024-02-23T19:14:42.395Z,99078.34
2024-02-23T19:17:10.328Z,99083.94
2024-02-23T19:19:37.801Z,99080.38
2024-02-23T19:22:05.090Z,99071.50
2024-02-23T19:24:32.172Z,99059.88
2024-02-23T19:27:00.972Z,99066.22
2024-02-23T19:29:28.386Z,99060.94
2024-02-23T19:31:55.408Z,99061.91
2024-02-23T19:34:22.485Z,99051.34
2024-02-23T19:36:50.056Z,99039.31
2024-02-23T19:39:16.929Z,99049.88
2024-02-23T19:41:47.168Z,99046.72
2024-02-23T19:44:14.461Z,99042.31
2024-02-23T19:46:41.372Z,99046.41
2024-02-23T19:49:08.847Z,99049.06
2024-02-23T19:51:37.446Z,99055.00
2024-02-23T19:54:05.818Z,99064.28
2024-02-23T19:56:33.135Z,99068.81
2024-02-23T19:59:11.339Z,99067.81
2024-02-23T20:01:40.537Z,99072.31
2024-02-23T20:04:10.995Z,99067.16
2024-02-23T20:07:38.099Z,99056.66
2024-02-23T20:10:07.230Z,99066.78
2024-02-23T20:16:29.153Z,99071.94
2024-02-23T20:18:59.905Z,99067.22
2024-02-23T20:21:36.255Z,99081.94
2024-02-23T20:24:59.202Z,99085.44
2024-02-23T20:27:31.640Z,99095.91
2024-02-23T20:30:00.795Z,99113.16
2024-02-23T20:32:30.287Z,99112.31
2024-02-23T20:35:28.357Z,99116.34
2024-02-23T20:37:59.671Z,99122.69
2024-02-23T20:40:31.860Z,99124.38
2024-02-23T20:42:59.698Z,99129.66
2024-02-23T20:45:46.692Z,99137.06
2024-02-23T20:48:29.128Z,99128.75
2024-02-23T20:51:19.398Z,99127.38
2024-02-23T20:53:48.943Z,99129.44
2024-02-23T20:56:16.069Z,99121.00
2024-02-23T20:58:43.147Z,99131.34
2024-02-23T21:01:10.307Z,99123.84
2024-02-23T21:03:38.341Z,99121.00
2024-02-23T21:06:08.848Z,99128.41
2024-02-23T21:08:37.956Z,99116.28
2024-02-23T21:11:05.036Z,99114.47
2024-02-23T21:13:32.139Z,99108.03
2024-02-23T21:15:59.302Z,99106.22
2024-02-23T21:18:26.353Z,99105.38
2024-02-23T21:20:53.453Z,99099.59
2024-02-23T21:23:29.535Z,99100.75
2024-02-23T21:25:59.376Z,99091.28
2024-02-23T21:28:28.922Z,99091.91
2024-02-23T21:31:17.174Z,99082.53
2024-02-23T21:36:41.898Z,99083.47
2024-02-23T21:37:29.398Z,99086.94
2024-02-23T21:39:56.409Z,99094.84
2024-02-23T21:42:30.719Z,99087.91
2024-02-23T21:45:00.144Z,99082.00
2024-02-23T21:47:27.499Z,99086.09
2024-02-23T21:49:54.527Z,99079.59
2024-02-23T21:52:26.364Z,99082.94
2024-02-23T21:54:59.060Z,99084.13
2024-02-23T21:57:53.944Z,99086.53
2024-02-23T22:00:23.406Z,99089.09
2024-02-23T22:03:16.705Z,99097.09
2024-02-23T22:05:56.526Z,99093.00
2024-02-23T22:08:38.029Z,99105.47
2024-02-23T22:11:37.112Z,99109.81
2024-02-23T22:14:09.973Z,99112.34
2024-02-23T22:16:39.405Z,99118.38
2024-02-23T22:19:13.638Z,99118.03
2024-02-23T22:22:15.985Z,99128.69
2024-02-23T22:27:21.129Z,99130.50
2024-02-23T22:27:56.307Z,99132.28
2024-02-23T22:30:23.310Z,99135.66
2024-02-23T22:33:18.214Z,99129.75
2024-02-23T22:37:07.075Z,99133.66
2024-02-23T22:39:26.117Z,99139.66
2024-02-23T22:42:21.782Z,99138.00
2024-02-23T22:45:38.812Z,99128.09
2024-02-23T22:48:24.975Z,99126.28
2024-02-23T22:51:29.527Z,99119.22
2024-02-23T22:54:15.690Z,99111.63
2024-02-23T22:56:55.257Z,99109.00
2024-02-23T22:59:49.282Z,99111.84
2024-02-23T23:03:17.653Z,99099.91
2024-02-23T23:05:25.526Z,99102.25
2024-02-23T23:08:17.473Z,99098.34
2024-02-23T23:13:27.764Z,99088.84
2024-02-23T23:14:05.741Z,99101.94
2024-02-23T23:16:43.409Z,99102.88
2024-02-23T23:19:14.659Z,99112.69
2024-02-23T23:22:01.363Z,99107.41
2024-02-23T23:24:31.910Z,99109.84
2024-02-23T23:27:10.016Z,99108.34
2024-02-23T23:29:45.946Z,99104.25
2024-02-23T23:32:18.740Z,99111.44
2024-02-23T23:34:45.970Z,99108.78
2024-02-23T23:37:58.374Z,99109.50
2024-02-23T23:40:48.986Z,99114.16
2024-02-23T23:43:31.868Z,99107.31
2024-02-23T23:46:13.063Z,99103.53
2024-02-23T23:48:44.795Z,99113.41
2024-02-23T23:51:13.377Z,99102.75
2024-02-23T23:53:44.958Z,99096.66
2024-02-23T23:56:39.410Z,99109.53
2024-02-23T23:59:11.999Z,99095.81
